Time;durP1;ratioP1;P1;durP2;ratioP2;P2;SDS_P1;SDS_P2;PMS_P1;PMS_P2;Temp;Humidity;BMP_temperature;BMP_pressure;BME280_temperature;BME280_humidity;BME280_pressure;Samples;Min_cycle;Max_cycle;Signal;HPM_P1;HPM_P2
2023/08/20 00:01:27;;;;;;;21.40;16.80;;;21.90;82.80;;;;;;4866704;29;20049;-87
2023/08/20 00:03:55;;;;;;;21.30;17.42;;;21.80;82.90;;;;;;4866702;29;20096;-87
2023/08/20 00:06:23;;;;;;;22.58;17.17;;;21.80;83.10;;;;;;4863465;29;20049;-87
2023/08/20 00:08:51;;;;;;;22.17;18.00;;;21.80;83.20;;;;;;4879003;29;20049;-87
2023/08/20 00:11:18;;;;;;;24.25;17.33;;;21.70;83.30;;;;;;4863547;29;20492;-87
2023/08/20 00:13:45;;;;;;;22.67;18.38;;;21.70;83.30;;;;;;4863401;29;20076;-87
2023/08/20 00:16:13;;;;;;;23.83;18.00;;;21.70;83.20;;;;;;4873559;29;20049;-87
2023/08/20 00:18:40;;;;;;;21.02;17.17;;;21.70;83.10;;;;;;4881967;29;20082;-87
2023/08/20 00:21:08;;;;;;;24.07;18.37;;;21.70;83.10;;;;;;4881951;29;20414;-87
2023/08/20 00:23:36;;;;;;;22.88;16.73;;;21.70;83.10;;;;;;4881862;29;20144;-87
2023/08/20 00:26:04;;;;;;;23.17;18.65;;;21.60;83.20;;;;;;4881853;29;20411;-87
2023/08/20 00:28:34;;;;;;;20.83;17.45;;;21.60;83.30;;;;;;4866384;29;20041;-87
2023/08/20 00:31:02;;;;;;;23.35;18.45;;;21.60;83.20;;;;;;4866489;29;20044;-87
2023/08/20 00:33:30;;;;;;;21.83;18.00;;;21.60;83.10;;;;;;4881599;29;20044;-87
2023/08/20 00:35:58;;;;;;;22.00;17.38;;;21.60;82.90;;;;;;4881161;29;20143;-87
2023/08/20 00:38:25;;;;;;;21.27;17.65;;;21.60;83.00;;;;;;4881501;29;20136;-87
2023/08/20 00:40:53;;;;;;;22.35;17.33;;;21.60;83.00;;;;;;4881574;29;20135;-87
2023/08/20 00:43:20;;;;;;;21.08;16.65;;;21.50;83.10;;;;;;4881841;29;20052;-87
2023/08/20 00:45:48;;;;;;;21.47;16.87;;;21.60;83.10;;;;;;4881495;29;20403;-87
2023/08/20 00:48:17;;;;;;;19.90;17.05;;;21.50;83.20;;;;;;4881416;29;20072;-87
2023/08/20 00:50:45;;;;;;;21.33;17.60;;;21.50;83.20;;;;;;4881476;29;20064;-86
2023/08/20 00:53:13;;;;;;;22.98;17.23;;;21.50;83.20;;;;;;4866096;29;20061;-87
2023/08/20 00:55:44;;;;;;;22.20;17.67;;;21.50;83.10;;;;;;4881340;29;20076;-87
2023/08/20 00:58:12;;;;;;;21.43;16.53;;;21.50;83.10;;;;;;4881424;29;20139;-87
2023/08/20 01:00:39;;;;;;;22.52;17.45;;;21.50;83.20;;;;;;4866155;29;20057;-87
2023/08/20 01:03:07;;;;;;;22.30;17.90;;;21.40;83.30;;;;;;4866193;29;20083;-87
2023/08/20 01:05:41;;;;;;;21.73;17.52;;;21.50;83.30;;;;;;4881752;29;20388;-87
2023/08/20 01:08:40;;;;;;;19.67;16.60;;;21.40;83.20;;;;;;4881305;29;20511;-87
2023/08/20 01:11:18;;;;;;;22.57;17.33;;;21.40;83.30;;;;;;4836131;29;20045;-87
2023/08/20 01:13:45;;;;;;;23.40;17.35;;;21.40;83.30;;;;;;4881222;29;20469;-87
2023/08/20 01:16:13;;;;;;;21.95;16.85;;;21.30;83.30;;;;;;4881041;29;20108;-87
2023/08/20 01:18:40;;;;;;;23.83;17.27;;;21.30;83.30;;;;;;4881350;29;20063;-87
2023/08/20 01:21:29;;;;;;;21.58;16.85;;;21.30;83.30;;;;;;4881208;29;20076;-87
2023/08/20 01:24:27;;;;;;;22.33;17.70;;;21.30;83.20;;;;;;4881107;29;20062;-87
2023/08/20 01:27:00;;;;;;;21.88;17.70;;;21.30;83.30;;;;;;4866106;29;20059;-87
2023/08/20 01:29:28;;;;;;;22.30;17.63;;;21.30;83.30;;;;;;4865818;29;20053;-87
2023/08/20 01:31:56;;;;;;;21.40;17.13;;;21.20;83.40;;;;;;4881510;29;20072;-87
2023/08/20 01:34:25;;;;;;;20.65;17.38;;;21.20;83.60;;;;;;4881087;29;20048;-87
2023/08/20 01:36:52;;;;;;;22.07;17.50;;;21.20;83.60;;;;;;4881260;29;20104;-87
2023/08/20 01:39:19;;;;;;;21.60;16.77;;;21.20;83.50;;;;;;4880970;29;20057;-87
2023/08/20 01:41:46;;;;;;;23.23;17.25;;;21.20;83.40;;;;;;4880991;29;20048;-87
2023/08/20 01:44:13;;;;;;;21.73;16.75;;;21.20;83.40;;;;;;4881520;29;20044;-87
2023/08/20 01:46:40;;;;;;;21.80;17.15;;;21.30;83.40;;;;;;4881206;29;20059;-87
2023/08/20 01:49:08;;;;;;;20.63;16.80;;;21.20;83.30;;;;;;4883466;29;20057;-87
2023/08/20 01:51:36;;;;;;;21.40;16.10;;;21.20;83.30;;;;;;4868983;29;20048;-87
2023/08/20 01:54:03;;;;;;;23.35;16.63;;;21.20;83.20;;;;;;4884423;29;20056;-87
2023/08/20 01:56:30;;;;;;;20.13;16.92;;;21.20;83.10;;;;;;4878269;29;20041;-87
2023/08/20 01:58:57;;;;;;;19.65;16.35;;;21.10;83.20;;;;;;4884586;29;20052;-87
2023/08/20 02:01:25;;;;;;;23.13;16.53;;;21.20;83.10;;;;;;4884372;29;20049;-87
2023/08/20 02:03:52;;;;;;;19.60;16.90;;;21.10;83.00;;;;;;4884267;29;20522;-87
2023/08/20 02:06:19;;;;;;;20.48;16.70;;;21.10;83.00;;;;;;4884389;29;20108;-88
2023/08/20 02:08:47;;;;;;;19.77;16.77;;;21.20;82.90;;;;;;4884243;29;20045;-87
2023/08/20 02:11:14;;;;;;;23.08;16.23;;;21.20;83.00;;;;;;4884272;29;20147;-87
2023/08/20 02:13:44;;;;;;;19.70;16.23;;;21.10;82.90;;;;;;4883929;29;20068;-87
2023/08/20 02:16:11;;;;;;;19.38;16.00;;;21.10;83.00;;;;;;4883781;29;20187;-86
2023/08/20 02:18:38;;;;;;;19.30;16.63;;;21.10;83.10;;;;;;4883891;29;20048;-87
2023/08/20 02:21:05;;;;;;;19.33;16.25;;;21.10;83.20;;;;;;4884119;29;20055;-87
2023/08/20 02:23:32;;;;;;;19.40;16.45;;;21.10;83.20;;;;;;4868248;29;20403;-87
2023/08/20 02:26:00;;;;;;;22.07;16.27;;;21.00;83.30;;;;;;4883747;29;20507;-87
2023/08/20 02:28:29;;;;;;;21.48;16.33;;;21.10;83.10;;;;;;4884298;29;20036;-87
2023/08/20 02:30:57;;;;;;;20.70;16.20;;;21.10;83.10;;;;;;4883647;29;20052;-87
2023/08/20 02:33:24;;;;;;;19.90;15.55;;;21.00;83.10;;;;;;4883917;29;20517;-86
2023/08/20 02:35:51;;;;;;;19.08;15.40;;;20.90;83.20;;;;;;4868195;29;20044;-86
2023/08/20 02:38:18;;;;;;;19.77;15.53;;;20.90;83.40;;;;;;4883569;29;20414;-87
2023/08/20 02:40:46;;;;;;;21.73;16.40;;;20.90;83.50;;;;;;4883410;29;20056;-87
2023/08/20 02:43:13;;;;;;;19.98;16.25;;;20.80;83.60;;;;;;4883705;29;20052;-87
2023/08/20 02:45:42;;;;;;;19.05;15.38;;;20.80;83.70;;;;;;4883463;29;20049;-87
2023/08/20 02:48:10;;;;;;;18.65;15.35;;;20.80;83.60;;;;;;4900752;29;20068;-86
2023/08/20 02:50:37;;;;;;;21.73;15.30;;;20.90;83.50;;;;;;4883350;29;20100;-87
2023/08/20 02:53:04;;;;;;;19.02;15.25;;;20.90;83.30;;;;;;4883215;29;20040;-87
2023/08/20 02:55:32;;;;;;;19.70;15.18;;;20.90;83.30;;;;;;4883509;29;20418;-87
2023/08/20 02:58:00;;;;;;;18.98;15.80;;;20.80;83.30;;;;;;4883112;29;20052;-87
2023/08/20 03:00:27;;;;;;;19.20;15.32;;;20.80;83.40;;;;;;4882388;29;20500;-87
2023/08/20 03:02:55;;;;;;;18.27;15.77;;;20.80;83.40;;;;;;4883255;29;20123;-87
2023/08/20 03:05:23;;;;;;;20.80;15.50;;;20.80;83.30;;;;;;4883232;29;20079;-87
2023/08/20 03:07:50;;;;;;;19.08;15.55;;;20.80;83.20;;;;;;4882995;29;20055;-87
2023/08/20 03:10:17;;;;;;;18.48;14.73;;;20.70;83.30;;;;;;4883092;29;20040;-86
2023/08/20 03:12:44;;;;;;;20.90;15.52;;;20.70;83.30;;;;;;4867598;29;20037;-87
2023/08/20 03:15:11;;;;;;;19.60;15.20;;;20.60;83.40;;;;;;4867468;29;20052;-86
2023/08/20 03:17:38;;;;;;;20.27;15.60;;;20.60;83.50;;;;;;4867534;29;20112;-87
2023/08/20 03:20:06;;;;;;;19.42;14.82;;;20.60;83.70;;;;;;4867436;29;20112;-86
2023/08/20 03:22:36;;;;;;;19.88;14.85;;;20.50;83.60;;;;;;4867418;29;20075;-87
2023/08/20 03:25:04;;;;;;;19.25;15.13;;;20.60;83.60;;;;;;4867280;29;20072;-86
2023/08/20 03:27:31;;;;;;;18.00;15.00;;;20.50;83.70;;;;;;4882664;29;20048;-86
2023/08/20 03:29:58;;;;;;;19.30;16.02;;;20.50;83.70;;;;;;4867330;29;20044;-86
2023/08/20 03:32:26;;;;;;;18.70;15.75;;;20.50;83.70;;;;;;4867219;29;20131;-87
2023/08/20 03:34:55;;;;;;;20.48;15.63;;;20.50;83.80;;;;;;4882556;29;20048;-87
2023/08/20 03:37:22;;;;;;;20.58;15.18;;;20.50;83.80;;;;;;4867059;29;20044;-87
2023/08/20 03:39:49;;;;;;;21.13;15.63;;;20.40;83.80;;;;;;4867108;29;20048;-87
2023/08/20 03:42:16;;;;;;;18.15;15.13;;;20.40;84.00;;;;;;4866952;29;20059;-86
2023/08/20 03:44:43;;;;;;;19.75;14.93;;;20.50;84.00;;;;;;4882453;29;20052;-86
2023/08/20 03:47:10;;;;;;;18.00;14.80;;;20.40;84.00;;;;;;4866909;29;20498;-86
2023/08/20 03:49:38;;;;;;;19.35;15.07;;;20.40;84.10;;;;;;4882085;29;20051;-87
2023/08/20 03:52:06;;;;;;;18.63;15.93;;;20.50;84.00;;;;;;4882423;29;20040;-87
2023/08/20 03:54:35;;;;;;;19.05;14.88;;;20.50;84.00;;;;;;4882052;29;20052;-86
2023/08/20 03:57:02;;;;;;;19.42;15.48;;;20.50;84.00;;;;;;4882302;29;20581;-87
2023/08/20 03:59:30;;;;;;;20.75;15.38;;;20.50;84.00;;;;;;4882084;29;20144;-86
2023/08/20 04:01:58;;;;;;;18.05;15.95;;;20.50;83.70;;;;;;4882096;29;20052;-87
2023/08/20 04:04:25;;;;;;;17.70;15.03;;;20.50;83.70;;;;;;4866660;29;20534;-86
2023/08/20 04:06:52;;;;;;;18.17;14.80;;;20.50;83.70;;;;;;4866730;29;20048;-86
2023/08/20 04:09:19;;;;;;;21.08;14.77;;;20.50;83.60;;;;;;4866618;29;20560;-87
2023/08/20 04:11:46;;;;;;;18.13;15.13;;;20.50;83.50;;;;;;4866383;29;20407;-87
2023/08/20 04:14:13;;;;;;;19.50;15.15;;;20.60;83.60;;;;;;4881867;29;20411;-87
2023/08/20 04:16:41;;;;;;;19.03;15.03;;;20.50;83.60;;;;;;4881891;29;20060;-87
2023/08/20 04:19:08;;;;;;;17.73;14.85;;;20.50;83.60;;;;;;4866461;29;20499;-87
2023/08/20 04:21:35;;;;;;;17.00;14.82;;;20.50;83.60;;;;;;4866386;29;20507;-86
2023/08/20 04:24:03;;;;;;;18.48;14.95;;;20.50;83.70;;;;;;4866454;29;20415;-87
2023/08/20 04:26:30;;;;;;;18.38;14.57;;;20.40;83.80;;;;;;4866348;29;20126;-87
2023/08/20 04:28:57;;;;;;;19.80;15.03;;;20.50;83.80;;;;;;4866481;29;20135;-86
2023/08/20 04:31:24;;;;;;;19.52;14.30;;;20.50;83.60;;;;;;4866646;29;20040;-87
2023/08/20 04:34:00;;;;;;;18.73;15.00;;;20.50;83.50;;;;;;4881742;29;20511;-87
2023/08/20 04:36:37;;;;;;;20.30;13.93;;;20.50;83.60;;;;;;4881598;29;20139;-87
2023/08/20 04:39:05;;;;;;;18.05;14.13;;;20.50;83.60;;;;;;4881656;29;20108;-87
2023/08/20 04:41:35;;;;;;;18.60;14.00;;;20.50;83.60;;;;;;4881520;29;20052;-87
2023/08/20 04:44:03;;;;;;;16.33;13.25;;;20.50;83.60;;;;;;4881579;29;20052;-86
2023/08/20 04:46:30;;;;;;;19.10;14.10;;;20.60;83.50;;;;;;4866358;29;20052;-87
2023/08/20 04:48:58;;;;;;;17.23;13.70;;;20.60;83.30;;;;;;4881097;29;20059;-86
2023/08/20 04:51:24;;;;;;;16.25;13.57;;;20.60;83.00;;;;;;4881472;29;20044;-87
2023/08/20 04:53:52;;;;;;;16.80;12.80;;;20.70;83.00;;;;;;4881666;29;20076;-87
2023/08/20 04:56:19;;;;;;;16.65;12.57;;;20.80;82.80;;;;;;4881460;29;20555;-87
2023/08/20 04:58:45;;;;;;;19.65;14.70;;;20.80;82.80;;;;;;4881513;29;20411;-87
2023/08/20 05:01:22;;;;;;;16.05;13.40;;;20.90;82.70;;;;;;4881546;29;20053;-86
2023/08/20 05:03:50;;;;;;;15.35;12.73;;;21.00;82.50;;;;;;4881322;29;20053;-86
2023/08/20 05:06:17;;;;;;;19.03;13.40;;;21.00;82.40;;;;;;4881293;29;20044;-86
2023/08/20 05:08:44;;;;;;;17.05;13.73;;;21.10;82.40;;;;;;4881143;29;20045;-86
2023/08/20 05:11:11;;;;;;;17.17;14.00;;;21.10;82.30;;;;;;4881226;29;20101;-86
2023/08/20 05:13:38;;;;;;;15.50;13.00;;;21.10;82.40;;;;;;4881466;29;20076;-87
2023/08/20 05:16:05;;;;;;;14.98;12.85;;;21.20;81.90;;;;;;4881049;29;20047;-86
2023/08/20 05:18:32;;;;;;;17.03;13.17;;;21.30;81.90;;;;;;4881300;29;20121;-86
2023/08/20 05:20:59;;;;;;;15.45;12.73;;;21.30;81.90;;;;;;4880933;29;20454;-86
2023/08/20 05:23:28;;;;;;;16.80;13.18;;;21.30;81.80;;;;;;4883132;29;20083;-86
2023/08/20 05:25:56;;;;;;;16.40;12.23;;;21.40;81.60;;;;;;4884668;29;20506;-87
2023/08/20 05:28:23;;;;;;;16.10;12.60;;;21.50;81.50;;;;;;4884640;29;20144;-86
2023/08/20 05:30:56;;;;;;;19.23;12.33;;;21.50;81.10;;;;;;4884645;29;20052;-86
2023/08/20 05:33:23;;;;;;;14.23;12.15;;;21.60;81.00;;;;;;4884665;29;20073;-86
2023/08/20 05:35:51;;;;;;;16.70;12.63;;;21.60;80.90;;;;;;4884594;29;20036;-86
2023/08/20 05:38:18;;;;;;;15.40;12.52;;;21.70;80.80;;;;;;4884473;29;20503;-87
2023/08/20 05:40:47;;;;;;;16.35;13.02;;;21.90;80.60;;;;;;4869466;29;20071;-87
2023/08/20 05:43:14;;;;;;;15.87;13.10;;;22.00;80.20;;;;;;4884418;29;20052;-86
2023/08/20 05:45:41;;;;;;;16.40;12.43;;;22.10;80.10;;;;;;4869293;29;20070;-87
2023/08/20 05:48:12;;;;;;;15.38;12.98;;;22.10;79.60;;;;;;4884043;29;20048;-86
2023/08/20 05:50:39;;;;;;;15.80;11.88;;;22.20;79.60;;;;;;4900230;29;20040;-86
2023/08/20 05:53:06;;;;;;;14.82;11.52;;;22.30;79.40;;;;;;4884135;29;20041;-87
2023/08/20 05:55:34;;;;;;;15.83;11.87;;;22.30;79.30;;;;;;4868843;29;20529;-87
2023/08/20 05:58:01;;;;;;;14.48;12.05;;;22.50;79.30;;;;;;4884291;29;20048;-87
2023/08/20 06:00:28;;;;;;;15.43;11.93;;;22.60;78.50;;;;;;4868704;29;20056;-86
2023/08/20 06:02:55;;;;;;;15.18;12.27;;;22.60;78.50;;;;;;4884127;29;20072;-86
2023/08/20 06:05:22;;;;;;;17.38;12.57;;;22.70;78.50;;;;;;4883962;29;20052;-87
2023/08/20 06:07:49;;;;;;;15.50;11.97;;;22.80;78.50;;;;;;4884065;29;20052;-86
2023/08/20 06:10:16;;;;;;;16.10;11.90;;;22.90;78.20;;;;;;4882119;29;20411;-87
2023/08/20 06:12:43;;;;;;;15.50;12.02;;;23.00;78.00;;;;;;4884005;29;20143;-87
2023/08/20 06:15:10;;;;;;;15.15;11.95;;;23.00;77.80;;;;;;4883933;29;20060;-87
2023/08/20 06:17:37;;;;;;;15.45;12.50;;;23.10;77.80;;;;;;4883722;29;20388;-86
2023/08/20 06:20:07;;;;;;;14.80;11.37;;;23.30;77.10;;;;;;4883883;29;20056;-86
2023/08/20 06:22:34;;;;;;;15.30;12.35;;;23.40;77.30;;;;;;4883617;29;20052;-86
2023/08/20 06:25:02;;;;;;;13.02;11.10;;;23.60;77.10;;;;;;4883800;29;20052;-87
2023/08/20 06:27:29;;;;;;;15.07;11.40;;;23.70;76.30;;;;;;4868340;29;20503;-87
2023/08/20 06:29:56;;;;;;;15.30;10.95;;;23.80;75.90;;;;;;4868121;29;20077;-86
2023/08/20 06:32:24;;;;;;;14.97;12.10;;;23.90;75.80;;;;;;4868181;29;20485;-87
2023/08/20 06:34:51;;;;;;;13.70;11.05;;;23.90;75.50;;;;;;4867147;29;20048;-86
2023/08/20 06:37:18;;;;;;;13.98;11.43;;;24.10;76.00;;;;;;4868158;29;20423;-87
2023/08/20 06:39:45;;;;;;;13.02;11.07;;;24.20;75.50;;;;;;4868331;29;20075;-86
2023/08/20 06:42:12;;;;;;;13.57;11.13;;;24.30;75.00;;;;;;4883648;29;20131;-87
2023/08/20 06:44:39;;;;;;;14.00;11.23;;;24.50;75.00;;;;;;4883492;29;20044;-87
2023/08/20 06:47:06;;;;;;;13.57;11.45;;;24.60;74.20;;;;;;4868148;29;20151;-87
2023/08/20 06:49:33;;;;;;;14.80;10.98;;;24.60;74.20;;;;;;4867772;29;20061;-87
2023/08/20 06:52:00;;;;;;;15.82;11.55;;;24.80;74.50;;;;;;4867845;29;20459;-87
2023/08/20 06:54:27;;;;;;;16.23;11.68;;;24.90;74.30;;;;;;4868046;29;20451;-86
2023/08/20 06:56:54;;;;;;;16.07;11.60;;;25.10;74.50;;;;;;4867761;29;20554;-86
2023/08/20 06:59:21;;;;;;;13.98;11.25;;;25.20;73.60;;;;;;4883176;29;20048;-87
2023/08/20 07:01:48;;;;;;;13.13;10.88;;;25.30;73.70;;;;;;4867587;29;20071;-86
2023/08/20 07:04:15;;;;;;;15.80;10.85;;;25.30;73.10;;;;;;4867831;29;20085;-87
2023/08/20 07:06:42;;;;;;;15.23;12.02;;;25.50;72.60;;;;;;4883291;29;20051;-87
2023/08/20 07:09:09;;;;;;;16.73;11.27;;;25.50;73.30;;;;;;4867577;29;20504;-87
2023/08/20 07:11:36;;;;;;;13.32;11.18;;;25.60;73.50;;;;;;4867479;29;20048;-87
2023/08/20 07:14:03;;;;;;;13.57;11.77;;;25.60;72.70;;;;;;4899994;29;20525;-87
2023/08/20 07:16:31;;;;;;;14.93;10.30;;;25.80;72.70;;;;;;4867531;29;20418;-87
2023/08/20 07:18:58;;;;;;;14.02;11.20;;;25.90;73.60;;;;;;4882582;29;20052;-86
2023/08/20 07:21:25;;;;;;;14.47;11.60;;;26.00;72.90;;;;;;4867325;29;20048;-87
2023/08/20 07:23:52;;;;;;;15.65;11.60;;;26.10;71.80;;;;;;4867215;29;20076;-87
2023/08/20 07:26:20;;;;;;;16.30;11.00;;;26.10;71.40;;;;;;4867102;29;20100;-86
2023/08/20 07:28:59;;;;;;;14.38;11.00;;;26.30;71.30;;;;;;4882582;29;20044;-86
2023/08/20 07:31:29;;;;;;;14.18;11.45;;;26.40;70.70;;;;;;4882443;29;20143;-87
2023/08/20 07:33:57;;;;;;;13.07;10.70;;;26.60;71.70;;;;;;4867032;29;20435;-87
2023/08/20 07:36:31;;;;;;;14.90;11.48;;;26.70;70.10;;;;;;4868089;29;20074;-86
2023/08/20 07:38:59;;;;;;;12.93;10.50;;;26.70;70.00;;;;;;4882266;29;20071;-86
2023/08/20 07:41:28;;;;;;;16.52;11.40;;;26.90;69.70;;;;;;4867244;29;20135;-87
2023/08/20 07:43:55;;;;;;;14.45;11.30;;;27.00;68.80;;;;;;4882147;29;20104;-86
2023/08/20 07:46:22;;;;;;;15.70;11.83;;;27.10;69.00;;;;;;4866656;29;20092;-87
2023/08/20 07:48:49;;;;;;;17.17;11.77;;;27.20;69.00;;;;;;4866428;29;20411;-86
2023/08/20 07:51:16;;;;;;;22.27;12.70;;;27.30;68.40;;;;;;4866896;29;20048;-86
2023/08/20 07:53:43;;;;;;;18.05;11.43;;;27.40;67.40;;;;;;4882242;29;20563;-87
2023/08/20 07:56:10;;;;;;;13.23;10.60;;;27.50;68.50;;;;;;4881929;29;20053;-87
2023/08/20 07:58:37;;;;;;;14.13;10.13;;;27.60;67.90;;;;;;4863640;29;20045;-87
2023/08/20 08:01:04;;;;;;;15.65;10.52;;;27.60;68.30;;;;;;4863641;29;20087;-87
2023/08/20 08:03:31;;;;;;;12.98;10.05;;;27.80;67.50;;;;;;4863527;29;20060;-87
2023/08/20 08:05:59;;;;;;;13.27;9.82;;;27.80;64.10;;;;;;4848185;29;20061;-87
2023/08/20 08:08:26;;;;;;;11.43;9.68;;;27.80;63.40;;;;;;4863307;29;20045;-87
2023/08/20 08:10:53;;;;;;;14.67;10.40;;;27.90;63.60;;;;;;4863988;29;20523;-86
2023/08/20 08:13:22;;;;;;;12.38;9.52;;;27.90;63.70;;;;;;4847819;29;20067;-87
2023/08/20 08:15:50;;;;;;;11.75;9.30;;;28.00;64.00;;;;;;4863696;29;20506;-87
2023/08/20 08:18:19;;;;;;;14.13;9.45;;;28.10;62.90;;;;;;4866311;29;20403;-87
2023/08/20 08:20:46;;;;;;;13.75;9.95;;;28.20;62.70;;;;;;4866532;29;20075;-87
2023/08/20 08:23:13;;;;;;;14.37;10.00;;;28.40;62.80;;;;;;4881867;29;20048;-87
2023/08/20 08:25:40;;;;;;;13.52;9.43;;;28.40;64.60;;;;;;4881839;29;20054;-86
2023/08/20 08:28:07;;;;;;;12.23;9.75;;;28.60;64.00;;;;;;4898244;29;20064;-87
2023/08/20 08:30:34;;;;;;;12.20;9.75;;;28.60;64.30;;;;;;4881579;29;20055;-87
2023/08/20 08:33:01;;;;;;;13.68;9.63;;;28.60;63.10;;;;;;4866017;29;20075;-87
2023/08/20 08:35:29;;;;;;;13.53;9.33;;;28.60;64.50;;;;;;4881468;29;20056;-86
2023/08/20 08:37:57;;;;;;;13.30;10.32;;;28.70;64.30;;;;;;4866250;29;20071;-87
2023/08/20 08:40:28;;;;;;;11.85;9.10;;;28.70;63.00;;;;;;4897232;29;20049;-86
2023/08/20 08:42:56;;;;;;;11.85;9.70;;;28.70;63.00;;;;;;4866024;29;20048;-87
2023/08/20 08:45:23;;;;;;;12.15;9.43;;;28.80;63.30;;;;;;4866100;29;20104;-87
2023/08/20 08:47:53;;;;;;;15.07;10.57;;;28.90;61.90;;;;;;4865970;29;20418;-87
2023/08/20 08:50:21;;;;;;;11.82;10.02;;;28.90;62.30;;;;;;4881029;29;20492;-87
2023/08/20 08:52:52;;;;;;;12.07;9.63;;;29.00;62.70;;;;;;4881433;29;20055;-87
2023/08/20 08:55:19;;;;;;;11.68;8.90;;;29.10;61.90;;;;;;4881591;29;20116;-87
2023/08/20 08:57:46;;;;;;;13.50;9.65;;;29.10;62.70;;;;;;4882459;29;20521;-87
2023/08/20 09:00:14;;;;;;;12.80;8.97;;;29.10;61.10;;;;;;4869815;29;20507;-86
2023/08/20 09:02:41;;;;;;;19.55;9.70;;;29.10;60.30;;;;;;4885639;29;20045;-86
2023/08/20 09:05:08;;;;;;;12.35;10.75;;;29.10;60.40;;;;;;4885085;29;20510;-87
2023/08/20 09:07:35;;;;;;;11.68;9.43;;;29.10;60.20;;;;;;4885069;29;20044;-86
2023/08/20 09:10:03;;;;;;;12.93;9.48;;;29.20;59.60;;;;;;4869554;29;20046;-86
2023/08/20 09:12:34;;;;;;;13.40;9.97;;;29.30;59.50;;;;;;4884883;29;20052;-87
2023/08/20 09:15:01;;;;;;;12.48;9.63;;;29.30;60.60;;;;;;4884871;29;20056;-87
2023/08/20 09:17:29;;;;;;;12.05;9.63;;;29.40;60.40;;;;;;4884865;29;20041;-87
2023/08/20 09:19:59;;;;;;;10.60;8.68;;;29.50;59.90;;;;;;4884738;29;20057;-86
2023/08/20 09:22:27;;;;;;;12.82;9.48;;;29.40;58.50;;;;;;4884787;29;20079;-86
2023/08/20 09:24:56;;;;;;;12.47;9.27;;;29.50;59.30;;;;;;4874078;29;20049;-86
2023/08/20 09:27:23;;;;;;;10.65;8.48;;;29.50;57.40;;;;;;4869210;29;20045;-86
2023/08/20 09:29:52;;;;;;;11.63;8.40;;;29.60;58.60;;;;;;4869100;29;20048;-86
2023/08/20 09:32:24;;;;;;;11.43;8.85;;;29.60;58.80;;;;;;4885064;29;20471;-87
2023/08/20 09:34:52;;;;;;;11.35;8.73;;;29.60;58.40;;;;;;4869177;29;20511;-87
2023/08/20 09:37:22;;;;;;;14.33;9.77;;;29.60;57.80;;;;;;4869045;29;20039;-86
2023/08/20 09:39:49;;;;;;;11.38;9.00;;;29.70;58.80;;;;;;4869008;29;20049;-87
2023/08/20 09:42:17;;;;;;;11.93;9.23;;;29.70;56.30;;;;;;4868952;29;20100;-86
2023/08/20 09:44:45;;;;;;;13.68;9.30;;;29.80;58.10;;;;;;4884405;29;20060;-87
2023/08/20 09:47:18;;;;;;;11.85;9.95;;;29.90;57.30;;;;;;4884607;29;20558;-87
2023/08/20 09:49:48;;;;;;;15.77;10.07;;;30.00;56.90;;;;;;4868645;29;20061;-87
2023/08/20 09:52:28;;;;;;;12.05;9.30;;;30.00;56.50;;;;;;4899950;29;20056;-87
2023/08/20 09:55:13;;;;;;;12.90;9.45;;;29.90;57.10;;;;;;4884440;29;20612;-86
2023/08/20 09:57:41;;;;;;;12.30;9.68;;;29.90;57.60;;;;;;4868658;29;20053;-87
2023/08/20 10:00:13;;;;;;;12.77;9.45;;;30.10;56.40;;;;;;4869276;29;20053;-87
2023/08/20 10:02:41;;;;;;;11.63;9.90;;;30.10;56.70;;;;;;4884589;29;20104;-87
2023/08/20 10:05:10;;;;;;;12.80;10.20;;;30.10;57.40;;;;;;4884326;29;20053;-86
2023/08/20 10:07:38;;;;;;;16.02;11.10;;;30.20;56.80;;;;;;4883918;29;20056;-87
2023/08/20 10:10:10;;;;;;;14.00;11.02;;;30.30;57.60;;;;;;4883526;29;20044;-87
2023/08/20 10:12:56;;;;;;;12.48;9.75;;;30.40;57.40;;;;;;4900933;29;20051;-86
2023/08/20 10:15:23;;;;;;;13.97;10.10;;;30.30;56.70;;;;;;4868734;29;20053;-87
2023/08/20 10:17:50;;;;;;;12.05;10.10;;;30.10;55.80;;;;;;4884526;29;20116;-87
2023/08/20 10:20:18;;;;;;;13.63;10.90;;;30.00;58.10;;;;;;4883693;29;20068;-87
2023/08/20 10:22:46;;;;;;;12.63;10.02;;;29.90;56.40;;;;;;4883808;29;20052;-87
2023/08/20 10:25:26;;;;;;;12.45;10.50;;;30.10;56.00;;;;;;4883578;29;20484;-87
2023/08/20 10:27:54;;;;;;;10.70;8.90;;;30.20;57.10;;;;;;4883601;29;20060;-87
2023/08/20 10:30:26;;;;;;;11.00;8.40;;;30.40;54.50;;;;;;4868127;29;20052;-87
2023/08/20 10:32:55;;;;;;;11.27;9.45;;;30.50;54.70;;;;;;4868083;29;20132;-87
2023/08/20 10:35:26;;;;;;;11.55;9.00;;;30.50;54.30;;;;;;4883900;29;20041;-87
2023/08/20 10:38:07;;;;;;;11.45;8.95;;;30.60;53.30;;;;;;4868345;29;20053;-87
2023/08/20 10:40:53;;;;;;;14.30;9.73;;;30.60;55.00;;;;;;4883632;29;20048;-87
2023/08/20 10:43:30;;;;;;;11.27;9.27;;;30.80;54.80;;;;;;4867990;29;20147;-87
2023/08/20 10:46:17;;;;;;;10.63;8.98;;;30.90;53.70;;;;;;4868069;29;20056;-87
2023/08/20 10:48:52;;;;;;;11.05;8.95;;;31.00;53.10;;;;;;4883326;29;20052;-87
2023/08/20 10:51:28;;;;;;;11.00;8.88;;;31.10;53.30;;;;;;4883426;29;20061;-87
2023/08/20 10:54:01;;;;;;;12.07;9.13;;;31.10;52.40;;;;;;4867901;29;20052;-86
2023/08/20 10:56:47;;;;;;;10.75;8.25;;;31.00;51.70;;;;;;4883054;29;20044;-87
2023/08/20 10:59:22;;;;;;;11.52;7.40;;;31.10;52.10;;;;;;4883129;29;20045;-87
2023/08/20 11:01:51;;;;;;;12.15;9.38;;;31.10;48.40;;;;;;4867863;29;20083;-87
2023/08/20 11:04:20;;;;;;;11.27;9.00;;;31.20;49.30;;;;;;4883563;29;20452;-87
2023/08/20 11:06:52;;;;;;;15.70;8.80;;;31.20;51.30;;;;;;4883269;29;20048;-85
2023/08/20 11:09:21;;;;;;;11.32;8.90;;;31.30;52.00;;;;;;4867789;29;20051;-87
2023/08/20 11:11:49;;;;;;;11.60;8.68;;;31.50;50.90;;;;;;4899966;29;20037;-87
2023/08/20 11:14:18;;;;;;;11.88;8.50;;;31.50;50.30;;;;;;4867309;29;20048;-87
2023/08/20 11:16:46;;;;;;;12.82;8.07;;;31.60;50.30;;;;;;4867366;29;20060;-87
2023/08/20 11:19:14;;;;;;;12.97;9.10;;;31.60;48.00;;;;;;4867338;29;20463;-87
2023/08/20 11:21:42;;;;;;;11.13;8.82;;;31.60;48.40;;;;;;4882032;29;20545;-87
2023/08/20 11:24:10;;;;;;;12.20;8.23;;;31.70;49.40;;;;;;4867159;29;20468;-87
2023/08/20 11:26:42;;;;;;;10.65;7.60;;;31.60;48.60;;;;;;4867408;29;20062;-87
2023/08/20 11:29:19;;;;;;;10.90;6.97;;;31.90;48.30;;;;;;4899267;29;20133;-87
2023/08/20 11:31:47;;;;;;;10.47;8.03;;;32.00;46.80;;;;;;4863946;29;20041;-87
2023/08/20 11:34:14;;;;;;;10.43;7.70;;;32.00;48.60;;;;;;4848793;29;20045;-87
2023/08/20 11:36:41;;;;;;;9.90;8.00;;;31.90;49.70;;;;;;4848472;29;20411;-87
2023/08/20 11:39:08;;;;;;;10.43;7.38;;;31.90;49.60;;;;;;4848675;29;20045;-87
2023/08/20 11:41:38;;;;;;;9.25;7.00;;;31.90;49.30;;;;;;4848341;29;20057;-87
2023/08/20 11:44:07;;;;;;;10.73;6.83;;;31.80;47.90;;;;;;4848430;29;20057;-87
2023/08/20 11:46:43;;;;;;;10.65;6.75;;;32.00;47.30;;;;;;4848317;29;20057;-87
2023/08/20 11:49:11;;;;;;;9.75;7.40;;;31.90;46.50;;;;;;4863895;29;20045;-87
2023/08/20 11:51:45;;;;;;;11.77;7.18;;;31.80;47.20;;;;;;4863622;29;20049;-87
2023/08/20 11:54:14;;;;;;;10.02;7.00;;;31.60;46.70;;;;;;4848232;29;20053;-87
2023/08/20 11:56:47;;;;;;;8.03;6.30;;;31.50;48.20;;;;;;4848244;29;20048;-86
2023/08/20 11:59:16;;;;;;;8.30;6.63;;;31.60;46.10;;;;;;4848182;29;20148;-87
2023/08/20 12:01:43;;;;;;;8.60;6.60;;;31.90;47.60;;;;;;4848180;29;20056;-87
2023/08/20 12:04:10;;;;;;;10.40;6.30;;;31.90;45.30;;;;;;4848467;29;20503;-87
2023/08/20 12:06:38;;;;;;;8.05;5.45;;;32.00;46.40;;;;;;4847921;29;20148;-87
2023/08/20 12:09:22;;;;;;;9.90;6.13;;;32.10;46.80;;;;;;4848130;29;20067;-87
2023/08/20 12:11:55;;;;;;;8.13;5.93;;;32.10;47.10;;;;;;4847741;29;20136;-87
2023/08/20 12:14:23;;;;;;;10.55;6.07;;;32.20;45.50;;;;;;4848065;29;20053;-86
2023/08/20 12:16:50;;;;;;;8.98;5.93;;;32.20;46.10;;;;;;4863447;29;20045;-87
2023/08/20 12:19:18;;;;;;;8.13;5.72;;;32.20;47.00;;;;;;4848034;29;20052;-87
2023/08/20 12:21:45;;;;;;;10.33;6.33;;;32.20;44.80;;;;;;4847903;29;20460;-87
2023/08/20 12:24:12;;;;;;;9.25;6.43;;;32.30;45.30;;;;;;4879682;29;20423;-87
2023/08/20 12:26:40;;;;;;;9.75;6.50;;;32.40;45.40;;;;;;4847701;29;20052;-87
2023/08/20 12:29:07;;;;;;;9.30;6.28;;;32.20;45.10;;;;;;4847803;29;20057;-87
2023/08/20 12:31:35;;;;;;;9.85;6.50;;;32.20;45.20;;;;;;4878590;29;20060;-87
2023/08/20 12:34:03;;;;;;;11.07;6.23;;;32.30;45.10;;;;;;4847657;29;20052;-87
2023/08/20 12:36:30;;;;;;;9.55;6.35;;;32.10;45.40;;;;;;4863433;29;20049;-89
2023/08/20 12:38:57;;;;;;;10.63;6.40;;;32.10;45.40;;;;;;4847873;29;20500;-89